Time;durP1;ratioP1;P1;durP2;ratioP2;P2;SDS_P1;SDS_P2;PMS_P1;PMS_P2;Temp;Humidity;BMP_temperature;BMP_pressure;BME280_temperature;BME280_humidity;BME280_pressure;Samples;Min_cycle;Max_cycle;Signal;HPM_P1;HPM_P2
2022/08/13 00:02:17;;;;;;;17.02;9.70;;;;;;;21.01;100.00;99741.45;1706694;84;21069;-67
2022/08/13 00:05:01;;;;;;;11.12;8.88;;;;;;;21.03;100.00;99743.33;1706557;83;21056;-67
2022/08/13 00:07:28;;;;;;;13.00;11.10;;;;;;;21.00;100.00;99730.74;1698901;84;21024;-68
2022/08/13 00:09:55;;;;;;;13.15;10.48;;;;;;;20.97;100.00;99737.78;1692517;83;21049;-67
2022/08/13 00:15:27;;;;;;;12.03;10.48;;;;;;;20.91;100.00;99730.81;1705317;84;21065;-66
2022/08/13 00:17:51;;;;;;;13.15;9.35;;;;;;;20.88;100.00;99726.53;1693640;84;21048;-67
2022/08/13 00:20:19;;;;;;;12.20;10.10;;;;;;;20.88;100.00;99712.70;1696239;84;21152;-66
2022/08/13 00:22:47;;;;;;;12.73;10.50;;;;;;;20.86;100.00;99707.53;1703052;82;21018;-67
2022/08/13 00:25:14;;;;;;;15.60;10.50;;;;;;;20.90;100.00;99700.73;1698745;84;21132;-67
2022/08/13 00:27:47;;;;;;;11.85;10.10;;;;;;;20.89;100.00;99691.62;1692627;84;21596;-67
2022/08/13 00:30:15;;;;;;;14.68;10.72;;;;;;;20.92;100.00;99679.06;1685985;84;21106;-67
2022/08/13 00:32:44;;;;;;;13.53;10.15;;;;;;;20.93;100.00;99689.80;1689735;83;21025;-66
2022/08/13 00:35:12;;;;;;;11.40;9.40;;;;;;;20.94;100.00;99687.24;1707247;84;21115;-67
2022/08/13 00:37:41;;;;;;;13.60;10.15;;;;;;;20.93;100.00;99692.56;1701448;83;21025;-67
2022/08/13 00:40:17;;;;;;;12.73;10.10;;;;;;;20.91;100.00;99688.50;1699641;84;21061;-66
2022/08/13 00:42:38;;;;;;;13.25;9.78;;;;;;;20.87;100.00;99699.44;1702416;84;21440;-67
2022/08/13 00:45:06;;;;;;;15.05;9.30;;;;;;;20.85;100.00;99685.97;1710606;84;21048;-66
2022/08/13 00:50:17;;;;;;;11.03;9.40;;;;;;;20.82;100.00;99673.39;1703782;83;21033;-66
2022/08/13 00:52:43;;;;;;;12.82;9.30;;;;;;;20.81;100.00;99658.74;1695568;84;20982;-67
2022/08/13 00:55:15;;;;;;;12.13;9.38;;;;;;;20.83;100.00;99641.22;1695157;84;21057;-66
2022/08/13 00:57:44;;;;;;;15.40;9.43;;;;;;;20.85;100.00;99645.03;1705855;84;21041;-65
2022/08/13 01:00:15;;;;;;;13.62;9.30;;;;;;;20.85;100.00;99646.42;1696662;83;21556;-66
2022/08/13 01:02:44;;;;;;;10.95;8.85;;;;;;;20.83;100.00;99641.22;1695988;84;21057;-66
2022/08/13 01:05:12;;;;;;;12.98;8.83;;;;;;;20.84;100.00;99642.02;1705227;83;21111;-66
2022/08/13 01:07:41;;;;;;;12.85;9.55;;;;;;;20.82;100.00;99642.39;1701562;84;21002;-66
2022/08/13 01:10:10;;;;;;;15.48;9.53;;;;;;;20.82;100.00;99639.62;1695021;83;21038;-66
2022/08/13 01:12:37;;;;;;;10.28;8.58;;;;;;;20.79;100.00;99633.39;1696143;83;21567;-67
2022/08/13 01:15:13;;;;;;;12.28;9.58;;;;;;;20.77;100.00;99636.24;1704855;82;21065;-66
2022/08/13 01:17:41;;;;;;;12.25;8.88;;;;;;;20.78;100.00;99630.38;1703484;84;21077;-68
2022/08/13 01:20:09;;;;;;;13.35;8.65;;;;;;;20.80;100.00;99623.92;1697660;84;21603;-67
2022/08/13 01:22:37;;;;;;;10.48;8.63;;;;;;;20.78;100.00;99621.27;1694278;84;22061;-67
2022/08/13 01:25:05;;;;;;;13.65;8.40;;;;;;;20.76;100.00;99626.35;1690397;84;21065;-68
2022/08/13 01:27:42;;;;;;;11.55;8.85;;;;;;;20.77;100.00;99630.14;1699984;83;21084;-68
2022/08/13 01:30:05;;;;;;;16.57;9.15;;;;;;;20.76;100.00;99631.88;1698017;84;21073;-67
2022/08/13 01:32:37;;;;;;;13.55;8.88;;;;;;;20.76;100.00;99633.27;1694989;84;21073;-68
2022/08/13 01:35:06;;;;;;;11.12;8.83;;;;;;;20.78;100.00;99633.15;1702976;84;21100;-69
2022/08/13 01:37:34;;;;;;;11.18;8.95;;;;;;;20.78;100.00;99625.42;1700199;84;21564;-68
2022/08/13 01:40:04;;;;;;;9.95;8.38;;;;;;;20.78;100.00;99631.77;1705625;83;21045;-67
2022/08/13 01:42:41;;;;;;;10.68;8.70;;;;;;;20.81;100.00;99631.65;1692116;84;21057;-68
2022/08/13 01:45:09;;;;;;;12.68;8.78;;;;;;;20.81;100.00;99635.23;1693913;84;21092;-68
2022/08/13 01:50:29;;;;;;;13.45;7.80;;;;;;;20.77;100.00;99630.71;1688596;83;21088;-68
2022/08/13 01:53:01;;;;;;;9.25;7.83;;;;;;;20.78;100.00;99629.00;1703148;83;21496;-68
2022/08/13 01:55:37;;;;;;;12.13;8.03;;;;;;;20.81;100.00;99626.12;1705530;83;21117;-67
2022/08/13 01:58:00;;;;;;;11.63;8.55;;;;;;;20.79;100.00;99635.34;1733619;82;21082;-68
2022/08/13 02:00:27;;;;;;;12.28;8.18;;;;;;;20.76;100.00;99627.73;1739813;80;21111;-68
2022/08/13 02:02:53;;;;;;;13.58;8.35;;;;;;;20.75;100.00;99617.81;1736397;82;21035;-69
2022/08/13 02:05:22;;;;;;;13.15;8.25;;;;;;;20.74;100.00;99621.14;1741374;81;21558;-67
2022/08/13 02:07:50;;;;;;;10.43;8.45;;;;;;;20.70;100.00;99623.55;1739983;81;21135;-68
2022/08/13 02:10:20;;;;;;;12.37;7.67;;;;;;;20.70;100.00;99620.78;1757857;81;21020;-68
2022/08/13 02:12:49;;;;;;;11.45;8.13;;;;;;;20.71;100.00;99620.45;1760845;81;20988;-68
2022/08/13 02:15:16;;;;;;;11.30;7.85;;;;;;;20.68;100.00;99607.88;1749557;81;21072;-68
2022/08/13 02:19:20;;;;;;;11.88;8.10;;;;;;;20.71;100.00;99594.17;1791363;79;22891;-67
2022/08/13 02:21:47;;;;;;;10.35;8.20;;;;;;;20.63;100.00;99597.02;1769990;80;21054;-66
2022/08/13 02:24:14;;;;;;;9.78;7.33;;;;;;;20.64;100.00;99602.22;1774756;80;21018;-67
2022/08/13 02:26:46;;;;;;;9.55;7.83;;;;;;;20.69;100.00;99599.83;1774592;80;21054;-66
2022/08/13 02:29:12;;;;;;;14.25;8.03;;;;;;;20.68;100.00;99588.52;1752387;80;21026;-66
2022/08/13 02:31:42;;;;;;;11.35;7.40;;;;;;;20.70;100.00;99601.42;1773891;80;21553;-67
2022/08/13 02:34:11;;;;;;;11.80;7.55;;;;;;;20.72;100.00;99601.33;1778615;80;21077;-67
2022/08/13 02:36:40;;;;;;;11.33;7.50;;;;;;;20.70;100.00;99602.80;1781429;80;21117;-66
2022/08/13 02:39:07;;;;;;;11.33;7.00;;;;;;;20.69;100.00;99601.98;1769304;80;21042;-68
2022/08/13 02:41:42;;;;;;;10.10;7.65;;;;;;;20.74;100.00;99592.67;1775342;80;21142;-68
2022/08/13 02:44:14;;;;;;;11.28;6.97;;;;;;;20.69;100.00;99588.16;1740936;81;21102;-68
2022/08/13 02:46:42;;;;;;;10.88;7.10;;;;;;;20.68;100.00;99596.81;1723532;81;21605;-67
2022/08/13 02:49:09;;;;;;;9.90;7.00;;;;;;;20.69;100.00;99588.77;1725341;82;21540;-69
2022/08/13 02:51:38;;;;;;;15.58;7.25;;;;;;;20.66;100.00;99584.70;1736862;82;21115;-68
2022/08/13 02:54:06;;;;;;;10.43;7.33;;;;;;;20.64;100.00;99581.48;1734490;82;21090;-68
2022/08/13 02:56:33;;;;;;;9.08;6.83;;;;;;;20.66;100.00;99567.30;1695401;82;21074;-67
2022/08/13 02:59:00;;;;;;;10.28;7.12;;;;;;;20.67;100.00;99571.69;1731021;82;22297;-68
2022/08/13 03:01:26;;;;;;;7.80;6.75;;;;;;;20.65;100.00;99565.09;1736471;82;21054;-66
2022/08/13 03:03:53;;;;;;;14.43;7.08;;;;;;;20.61;100.00;99568.91;1728865;82;21866;-67
2022/08/13 03:06:21;;;;;;;10.43;6.97;;;;;;;20.61;100.00;99557.28;1721270;82;21588;-68
2022/08/13 03:08:51;;;;;;;10.88;7.05;;;;;;;20.60;100.00;99564.52;1717488;82;21561;-69
2022/08/13 03:11:18;;;;;;;11.20;7.25;;;;;;;20.56;100.00;99559.44;1726494;82;21113;-68
2022/08/13 03:13:56;;;;;;;13.22;7.28;;;;;;;20.56;100.00;99551.14;1726127;82;21073;-67
2022/08/13 03:16:25;;;;;;;11.03;6.90;;;;;;;20.53;100.00;99554.59;1732553;82;21077;-68
2022/08/13 03:18:54;;;;;;;10.63;7.50;;;;;;;20.50;100.00;99560.25;1723058;82;21057;-68
2022/08/13 03:21:29;;;;;;;10.53;6.80;;;;;;;20.53;100.00;99560.13;1706210;83;21071;-67
2022/08/13 03:23:55;;;;;;;9.40;6.90;;;;;;;20.51;100.00;99565.20;1714829;83;21070;-68
2022/08/13 03:26:22;;;;;;;11.68;6.58;;;;;;;20.50;100.00;99566.34;1724751;83;21074;-67
2022/08/13 03:28:53;;;;;;;9.08;6.80;;;;;;;20.56;100.00;99563.59;1759026;80;21882;-67
2022/08/13 03:31:20;;;;;;;11.33;6.87;;;;;;;20.56;100.00;99568.55;1762162;80;22102;-67
2022/08/13 03:33:47;;;;;;;12.37;7.35;;;;;;;20.55;100.00;99562.77;1756850;80;21039;-67
2022/08/13 03:36:14;;;;;;;13.95;7.03;;;;;;;20.59;100.00;99569.23;1760626;81;21031;-68
2022/08/13 03:38:41;;;;;;;10.03;6.15;;;;;;;20.58;100.00;99562.69;1755166;80;21086;-67
2022/08/13 03:41:11;;;;;;;10.30;6.90;;;;;;;20.57;100.00;99570.17;1767166;81;21067;-67
2022/08/13 03:43:42;;;;;;;12.75;7.00;;;;;;;20.60;100.00;99576.39;1751367;80;21891;-67
2022/08/13 03:46:08;;;;;;;10.08;7.10;;;;;;;20.58;100.00;99565.45;1757324;81;21519;-67
2022/08/13 03:48:35;;;;;;;10.28;6.12;;;;;;;20.54;100.00;99572.81;1755314;80;21043;-67
2022/08/13 03:51:02;;;;;;;9.50;6.58;;;;;;;20.60;100.00;99572.82;1756842;81;21501;-67
2022/08/13 03:53:29;;;;;;;11.03;6.70;;;;;;;20.59;100.00;99576.73;1725880;82;21606;-67
2022/08/13 03:55:58;;;;;;;13.40;6.65;;;;;;;20.59;100.00;99576.73;1750656;80;21079;-67
2022/08/13 03:58:26;;;;;;;10.93;6.65;;;;;;;20.61;100.00;99575.83;1753002;81;21086;-68
2022/08/13 04:00:53;;;;;;;11.10;7.00;;;;;;;20.59;100.00;99573.39;1735857;82;21054;-67
2022/08/13 04:03:28;;;;;;;8.75;6.40;;;;;;;20.55;100.00;99586.28;1764220;81;21031;-67
2022/08/13 04:06:01;;;;;;;10.80;6.53;;;;;;;20.57;100.00;99595.63;1724155;82;21587;-69
2022/08/13 04:08:34;;;;;;;13.98;6.30;;;;;;;20.56;100.00;99610.03;1758478;80;21047;-69
2022/08/13 04:10:59;;;;;;;13.48;6.50;;;;;;;20.30;100.00;99613.59;1754630;80;21055;-70
2022/08/13 04:13:26;;;;;;;11.43;6.08;;;;;;;19.92;100.00;99603.25;1766143;80;21082;-69
2022/08/13 04:15:52;;;;;;;12.37;6.35;;;;;;;19.61;100.00;99614.11;1766808;80;21057;-70
2022/08/13 04:18:19;;;;;;;12.40;6.45;;;;;;;19.37;100.00;99619.41;1755010;81;21064;-67
2022/08/13 04:20:52;;;;;;;10.60;6.62;;;;;;;19.24;100.00;99621.81;1752557;81;21582;-68
2022/08/13 04:23:16;;;;;;;11.83;6.37;;;;;;;19.13;100.00;99626.89;1775916;80;21082;-68
2022/08/13 04:25:44;;;;;;;12.78;6.37;;;;;;;19.06;100.00;99627.97;1753227;81;21067;-68
2022/08/13 04:28:11;;;;;;;10.60;6.60;;;;;;;19.03;100.00;99633.34;1757447;80;21039;-70
2022/08/13 04:30:41;;;;;;;11.63;6.87;;;;;;;19.03;100.00;99648.52;1745513;81;21047;-70
2022/08/13 04:33:13;;;;;;;12.03;6.78;;;;;;;19.01;100.00;99642.53;1766453;80;21007;-70
2022/08/13 04:35:39;;;;;;;11.00;6.05;;;;;;;18.99;100.00;99636.55;1778413;80;21095;-69
2022/08/13 04:38:06;;;;;;;11.18;6.65;;;;;;;18.96;100.00;99628.91;1758450;81;21573;-70
2022/08/13 04:40:39;;;;;;;12.37;6.30;;;;;;;18.96;100.00;99634.42;1763044;80;21588;-69
2022/08/13 04:43:06;;;;;;;10.20;6.28;;;;;;;18.96;100.00;99639.94;1766812;80;21031;-68
2022/08/13 04:45:33;;;;;;;13.10;6.70;;;;;;;18.96;100.00;99631.09;1761100;81;21051;-67
2022/08/13 04:48:10;;;;;;;12.60;6.85;;;;;;;18.97;100.00;99639.62;1764886;80;21613;-67
2022/08/13 04:50:37;;;;;;;13.18;6.78;;;;;;;19.00;100.00;99637.58;1768552;81;21026;-67
2022/08/13 04:53:08;;;;;;;14.98;6.80;;;;;;;19.02;100.00;99645.53;1765423;81;21074;-67
2022/08/13 04:55:36;;;;;;;10.63;6.75;;;;;;;19.05;100.00;99639.36;1766374;80;21486;-69
2022/08/13 04:58:04;;;;;;;12.78;6.50;;;;;;;19.08;100.00;99641.45;1770563;80;21134;-68
2022/08/13 05:00:32;;;;;;;13.65;6.97;;;;;;;19.14;100.00;99634.03;1764035;81;21023;-67
2022/08/13 05:03:20;;;;;;;13.40;6.58;;;;;;;19.16;100.00;99636.48;1773935;81;21068;-68
2022/08/13 05:05:51;;;;;;;9.65;6.75;;;;;;;19.19;100.00;99644.09;1721956;82;21643;-68
2022/08/13 05:08:18;;;;;;;13.03;6.80;;;;;;;19.18;100.00;99629.48;1754237;80;21036;-69
2022/08/13 05:10:47;;;;;;;13.22;7.62;;;;;;;19.19;100.00;99637.19;1771520;81;21031;-69
2022/08/13 05:13:27;;;;;;;11.38;7.10;;;;;;;19.16;100.00;99635.91;1763761;80;21086;-69
2022/08/13 05:15:56;;;;;;;11.48;6.37;;;;;;;19.12;100.00;99636.89;1771500;80;21028;-71
2022/08/13 05:18:23;;;;;;;18.02;6.90;;;;;;;19.08;100.00;99629.84;1759440;80;21011;-71
2022/08/13 05:20:53;;;;;;;11.40;7.35;;;;;;;19.04;100.00;99632.20;1764985;80;21065;-68
2022/08/13 05:23:18;;;;;;;15.58;7.25;;;;;;;19.01;100.00;99634.25;1785089;80;21086;-70
2022/08/13 05:25:45;;;;;;;9.70;6.47;;;;;;;18.99;100.00;99625.52;1760201;80;21062;-70
2022/08/13 05:28:11;;;;;;;12.30;6.62;;;;;;;18.95;100.00;99627.30;1772353;80;21422;-70
2022/08/13 05:30:39;;;;;;;12.78;6.97;;;;;;;18.93;100.00;99625.42;1765234;80;21050;-70
2022/08/13 05:33:16;;;;;;;13.03;7.10;;;;;;;18.91;100.00;99616.12;1765352;80;21011;-70
2022/08/13 05:35:44;;;;;;;14.18;6.33;;;;;;;18.93;100.00;99619.91;1764446;80;21007;-69
2022/08/13 05:38:11;;;;;;;11.50;6.70;;;;;;;18.94;100.00;99618.22;1785926;80;21014;-69
2022/08/13 05:40:38;;;;;;;11.85;7.03;;;;;;;18.97;100.00;99614.80;1782239;80;21042;-68
2022/08/13 05:43:15;;;;;;;10.90;7.03;;;;;;;19.01;100.00;99614.38;1760769;80;20996;-70
2022/08/13 05:45:43;;;;;;;14.40;8.03;;;;;;;19.05;100.00;99618.09;1782761;80;21415;-69
2022/08/13 05:48:09;;;;;;;15.25;7.70;;;;;;;19.12;100.00;99619.77;1784776;80;21026;-69
2022/08/13 05:50:37;;;;;;;12.00;7.55;;;;;;;19.17;100.00;99618.76;1784626;80;21625;-69
2022/08/13 05:53:07;;;;;;;10.45;7.00;;;;;;;19.26;100.00;99619.55;1774696;80;21036;-68
2022/08/13 05:55:36;;;;;;;13.15;7.70;;;;;;;19.32;100.00;99607.98;1766545;80;21049;-68
2022/08/13 05:58:04;;;;;;;12.60;7.45;;;;;;;19.39;100.00;99612.98;1785561;80;20991;-70
2022/08/13 06:03:27;;;;;;;13.03;7.72;;;;;;;19.56;100.00;99607.39;1776608;80;21039;-68
2022/08/13 06:05:56;;;;;;;12.37;7.00;;;;;;;19.67;100.00;99607.80;1754805;80;21095;-69
2022/08/13 06:08:29;;;;;;;12.43;7.42;;;;;;;19.77;100.00;99603.27;1755007;82;21007;-69
2022/08/13 06:11:04;;;;;;;11.75;7.60;;;;;;;19.92;100.00;99605.44;1761257;80;21644;-68
2022/08/13 06:13:33;;;;;;;9.23;7.15;;;;;;;19.97;100.00;99608.02;1774183;80;21076;-69
2022/08/13 06:16:00;;;;;;;14.63;8.08;;;;;;;19.95;100.00;99601.19;1754806;80;21072;-68
2022/08/13 06:18:30;;;;;;;10.93;7.80;;;;;;;19.94;100.00;99610.07;1755462;81;21170;-68
2022/08/13 06:21:01;;;;;;;16.20;8.00;;;;;;;19.95;100.00;99608.91;1725771;82;21029;-68
2022/08/13 06:23:29;;;;;;;14.20;8.58;;;;;;;19.93;100.00;99608.45;1713622;83;21011;-69
2022/08/13 06:25:57;;;;;;;12.28;7.58;;;;;;;19.95;100.00;99613.05;1701520;84;21102;-68
2022/08/13 06:28:28;;;;;;;11.88;8.43;;;;;;;19.95;100.00;99607.52;1701671;84;21522;-68
2022/08/13 06:31:01;;;;;;;12.63;7.90;;;;;;;20.05;100.00;99618.17;1704451;83;21130;-69
2022/08/13 06:33:29;;;;;;;13.68;7.95;;;;;;;20.20;100.00;99616.75;1725865;83;21506;-67
2022/08/13 06:35:59;;;;;;;11.53;8.18;;;;;;;20.34;100.00;99617.31;1725746;83;21090;-67
2022/08/13 06:38:29;;;;;;;10.30;8.40;;;;;;;20.47;100.00;99614.03;1720167;83;21525;-67
2022/08/13 06:41:00;;;;;;;15.10;8.68;;;;;;;20.59;100.00;99612.11;1722952;83;21054;-67
2022/08/13 06:43:29;;;;;;;14.13;8.13;;;;;;;20.74;100.00;99618.38;1722765;83;21015;-68
2022/08/13 06:45:59;;;;;;;10.78;8.58;;;;;;;20.87;100.00;99612.29;1733431;83;21121;-67
2022/08/13 06:48:28;;;;;;;10.65;8.28;;;;;;;20.94;100.00;99608.38;1733543;83;21000;-68
2022/08/13 06:50:55;;;;;;;10.98;8.70;;;;;;;21.04;100.00;99617.64;1713204;83;21431;-68
2022/08/13 06:53:22;;;;;;;9.93;8.13;;;;;;;21.28;100.00;99611.34;1714013;83;21492;-66
2022/08/13 06:55:50;;;;;;;12.58;8.08;;;;;;;21.44;100.00;99609.48;1718296;83;21086;-65
2022/08/13 06:58:18;;;;;;;12.98;7.67;;;;;;;21.55;100.00;99612.59;1669087;83;21079;-66
2022/08/13 07:00:44;;;;;;;11.53;8.73;;;;;;;21.57;100.00;99614.46;1724918;83;21075;-66
2022/08/13 07:03:11;;;;;;;12.60;7.78;;;;;;;21.54;100.00;99606.84;1713747;83;21066;-66
2022/08/13 07:05:41;;;;;;;12.28;8.10;;;;;;;21.53;100.00;99601.89;1732995;83;21043;-65
2022/08/13 07:08:09;;;;;;;11.78;8.13;;;;;;;21.55;100.00;99598.75;1711701;83;20967;-66
2022/08/13 07:10:40;;;;;;;12.82;8.30;;;;;;;21.63;100.00;99597.25;1708737;83;21574;-65
2022/08/13 07:13:06;;;;;;;11.35;8.10;;;;;;;21.64;100.00;99592.52;1708103;83;21526;-68
2022/08/13 07:15:32;;;;;;;12.47;7.92;;;;;;;21.66;100.00;99580.50;1701448;83;21074;-65
2022/08/13 07:17:59;;;;;;;11.80;8.63;;;;;;;21.73;100.00;99573.80;1709179;83;21076;-66
2022/08/13 07:20:26;;;;;;;11.25;8.28;;;;;;;21.74;100.00;99574.03;1713342;82;21617;-66
2022/08/13 07:22:53;;;;;;;14.68;8.70;;;;;;;21.86;100.00;99569.83;1686009;85;21047;-67
2022/08/13 07:25:23;;;;;;;13.55;8.28;;;;;;;22.05;100.00;99576.16;1704593;84;21099;-66
2022/08/13 07:27:51;;;;;;;10.82;7.42;;;;;;;22.23;100.00;99578.30;1728456;82;21110;-65
2022/08/13 07:30:19;;;;;;;10.60;8.03;;;;;;;22.46;100.00;99568.04;1764164;81;21574;-66
2022/08/13 07:32:45;;;;;;;9.90;7.72;;;;;;;22.70;100.00;99558.22;1747585;82;21000;-67
2022/08/13 07:35:12;;;;;;;13.00;8.58;;;;;;;22.85;100.00;99562.95;1753359;81;21695;-67
2022/08/13 07:37:41;;;;;;;9.88;7.90;;;;;;;22.96;100.00;99557.67;1771310;81;21015;-67
2022/08/13 07:40:09;;;;;;;11.78;8.40;;;;;;;23.01;100.00;99546.31;1755391;80;21569;-66
2022/08/13 07:42:39;;;;;;;10.63;8.03;;;;;;;23.01;100.00;99553.25;1778162;81;21003;-67
2022/08/13 07:45:08;;;;;;;11.35;7.85;;;;;;;22.97;100.00;99549.58;1773967;80;21692;-66
2022/08/13 07:47:34;;;;;;;11.78;8.65;;;;;;;22.79;100.00;99554.09;1777956;81;21514;-65
2022/08/13 07:50:05;;;;;;;13.93;9.25;;;;;;;22.79;100.00;99554.09;1750445;81;21604;-69
2022/08/13 07:52:32;;;;;;;10.20;8.53;;;;;;;22.66;100.00;99558.67;1770683;80;20969;-67
2022/08/13 07:55:00;;;;;;;11.15;8.58;;;;;;;22.60;100.00;99573.97;1768387;80;21527;-67
2022/08/13 07:57:29;;;;;;;12.60;9.00;;;;;;;22.50;100.00;99591.11;1754770;81;20984;-66
2022/08/13 07:59:55;;;;;;;16.32;8.38;;;;;;;22.41;100.00;99578.80;1766258;80;21453;-67
2022/08/13 08:02:27;;;;;;;11.45;8.85;;;;;;;22.41;100.00;99578.80;1765327;81;21058;-68
2022/08/13 08:04:56;;;;;;;13.95;8.85;;;;;;;22.35;100.00;99560.00;1769622;81;21011;-67
2022/08/13 08:07:25;;;;;;;15.43;9.20;;;;;;;22.24;100.00;99552.77;1760138;81;21063;-67
2022/08/13 08:09:52;;;;;;;13.75;9.18;;;;;;;22.22;100.00;99560.05;1764508;80;21062;-67
2022/08/13 08:12:37;;;;;;;10.05;8.83;;;;;;;22.22;100.00;99571.13;1765573;81;21011;-67
2022/08/13 08:15:07;;;;;;;12.82;8.48;;;;;;;22.17;100.00;99573.36;1760651;80;21000;-67
2022/08/13 08:17:34;;;;;;;14.45;9.18;;;;;;;22.10;100.00;99567.04;1767831;81;21563;-71
2022/08/13 08:20:02;;;;;;;14.38;9.03;;;;;;;22.02;100.00;99584.61;1758713;80;21524;-68
2022/08/13 08:22:30;;;;;;;16.07;8.80;;;;;;;21.82;100.00;99596.66;1741172;80;20992;-69
2022/08/13 08:24:57;;;;;;;13.68;9.43;;;;;;;21.53;100.00;99592.77;1730031;82;21022;-68
2022/08/13 08:27:25;;;;;;;20.60;8.98;;;;;;;21.27;100.00;99596.70;1737701;82;21563;-68
2022/08/13 08:29:52;;;;;;;13.72;9.33;;;;;;;21.08;100.00;99599.78;1742529;82;21551;-69
2022/08/13 08:32:19;;;;;;;13.93;9.20;;;;;;;20.91;100.00;99597.20;1670932;85;21023;-67
2022/08/13 08:34:47;;;;;;;14.98;9.63;;;;;;;20.79;100.00;99589.13;1752423;81;21055;-68
2022/08/13 08:42:35;;;;;;;14.43;9.08;;;;;;;20.71;100.00;99592.80;1751150;80;21064;-67
2022/08/13 08:42:38;;;;;;;13.30;9.93;;;;;;;20.60;100.00;99590.22;1746591;80;21307;-68
2022/08/13 08:45:13;;;;;;;14.15;9.20;;;;;;;20.61;100.00;99596.56;1751936;82;21076;-69
2022/08/13 08:47:36;;;;;;;10.80;8.40;;;;;;;20.62;100.00;99588.48;1750856;81;21492;-69
2022/08/13 08:50:05;;;;;;;17.27;9.95;;;;;;;20.61;100.00;99587.70;1742426;80;21610;-68
2022/08/13 08:55:19;;;;;;;14.25;9.75;;;;;;;20.58;100.00;99595.88;1739438;82;21064;-68
2022/08/13 08:57:46;;;;;;;17.20;9.88;;;;;;;20.55;100.00;99584.08;1737878;82;21527;-69
2022/08/13 09:00:15;;;;;;;13.28;9.38;;;;;;;20.50;100.00;99584.31;1737682;82;21084;-68
2022/08/13 09:02:45;;;;;;;15.03;9.93;;;;;;;20.48;100.00;99582.45;1738702;82;21095;-67
2022/08/13 09:05:14;;;;;;;14.28;10.18;;;;;;;20.47;100.00;99591.34;1733963;82;21127;-68
2022/08/13 09:07:41;;;;;;;14.60;9.75;;;;;;;20.44;100.00;99585.69;1743281;80;20992;-67
2022/08/13 09:10:12;;;;;;;14.98;10.32;;;;;;;20.55;100.00;99593.77;1722916;82;21071;-68
2022/08/13 09:12:43;;;;;;;16.55;11.30;;;;;;;20.58;100.00;99586.97;1739772;81;21053;-68
2022/08/13 09:15:12;;;;;;;15.70;10.40;;;;;;;20.63;100.00;99588.72;1748111;82;21027;-68
2022/08/13 09:17:39;;;;;;;15.35;10.50;;;;;;;20.67;100.00;99585.52;1747733;81;21012;-68
2022/08/13 09:20:12;;;;;;;15.10;10.25;;;;;;;20.72;100.00;99579.20;1749837;81;21050;-68
2022/08/13 09:22:40;;;;;;;12.58;10.10;;;;;;;20.77;100.00;99570.67;1731634;82;21491;-67
2022/08/13 09:25:07;;;;;;;17.10;12.37;;;;;;;20.85;100.00;99564.80;1767603;80;20991;-68
2022/08/13 09:27:35;;;;;;;16.57;10.28;;;;;;;20.91;100.00;99562.61;1762441;81;20984;-72
2022/08/13 09:30:04;;;;;;;17.42;10.63;;;;;;;20.95;100.00;99550.52;1768788;80;21046;-72
2022/08/13 09:32:35;;;;;;;14.85;10.05;;;;;;;20.98;100.00;99551.20;1768165;81;21507;-74
2022/08/13 09:35:04;;;;;;;15.90;10.95;;;;;;;21.01;100.00;99546.96;1760705;81;21050;-73
2022/08/13 09:37:31;;;;;;;13.03;10.05;;;;;;;20.97;100.00;99548.23;1766050;80;20997;-71
2022/08/13 09:40:08;;;;;;;14.85;11.43;;;;;;;20.96;100.00;99546.61;1768098;81;21031;-75
2022/08/13 09:42:59;;;;;;;14.98;11.38;;;;;;;20.97;100.00;99541.31;1770670;80;20999;-74
2022/08/13 09:45:27;;;;;;;16.95;10.65;;;;;;;20.99;100.00;99545.09;1770567;81;21640;-72
2022/08/13 09:47:55;;;;;;;13.72;10.18;;;;;;;20.98;100.00;99533.22;1776478;81;21302;-75
2022/08/13 09:50:24;;;;;;;14.73;10.80;;;;;;;20.98;100.00;99529.07;1771882;80;21050;-73
2022/08/13 09:52:52;;;;;;;14.73;10.78;;;;;;;20.96;100.00;99523.09;1728871;82;21019;-73
2022/08/13 09:55:25;;;;;;;15.32;10.63;;;;;;;20.97;100.00;99534.39;1778276;80;21047;-73
2022/08/13 09:57:59;;;;;;;15.70;11.15;;;;;;;20.96;100.00;99537.49;1749058;81;20999;-75
2022/08/13 10:00:24;;;;;;;18.10;11.03;;;;;;;20.96;100.00;99543.03;1751497;80;21499;-75
2022/08/13 10:02:57;;;;;;;19.17;11.18;;;;;;;20.98;100.00;99542.91;1774423;81;21324;-73
2022/08/13 10:05:32;;;;;;;13.78;10.78;;;;;;;21.03;100.00;99533.58;1777514;81;21031;-73
2022/08/13 10:07:53;;;;;;;14.60;10.63;;;;;;;21.02;100.00;99536.91;1775245;80;21004;-75
2022/08/13 10:10:20;;;;;;;13.62;11.20;;;;;;;20.98;100.00;99531.84;1728284;82;21518;-75
2022/08/13 10:12:46;;;;;;;14.43;11.20;;;;;;;20.99;100.00;99537.61;1753348;80;20983;-74
2022/08/13 10:15:13;;;;;;;12.98;10.30;;;;;;;21.01;100.00;99531.74;1747085;82;21051;-73
2022/08/13 10:17:52;;;;;;;16.93;11.53;;;;;;;21.05;100.00;99532.64;1747019;82;20990;-76
2022/08/13 10:20:29;;;;;;;15.28;10.90;;;;;;;21.07;100.00;99527.02;1740179;82;21105;-74
2022/08/13 10:22:56;;;;;;;19.25;11.45;;;;;;;21.11;100.00;99527.97;1752636;81;21533;-73
2022/08/13 10:25:24;;;;;;;18.07;11.55;;;;;;;21.11;100.00;99521.63;1754290;81;21003;-74
2022/08/13 10:27:51;;;;;;;16.17;12.33;;;;;;;21.14;100.00;99516.77;1750768;82;21015;-73
2022/08/13 10:30:19;;;;;;;15.40;12.13;;;;;;;21.18;100.00;99511.59;1751113;81;21422;-73
2022/08/13 10:32:47;;;;;;;17.37;11.78;;;;;;;21.23;100.00;99505.80;1774115;80;21044;-75
2022/08/13 10:35:17;;;;;;;15.83;11.15;;;;;;;21.28;100.00;99505.58;1747501;81;21054;-74
2022/08/13 10:37:47;;;;;;;15.85;11.05;;;;;;;21.40;100.00;99513.64;1711389;84;21046;-73
2022/08/13 10:40:14;;;;;;;14.47;10.75;;;;;;;21.45;100.00;99507.84;1715864;82;21041;-74
2022/08/13 10:42:44;;;;;;;16.95;11.38;;;;;;;21.52;100.00;99501.95;1749957;80;21016;-71
2022/08/13 10:45:13;;;;;;;16.80;11.43;;;;;;;21.58;100.00;99503.88;1753561;81;21150;-73
2022/08/13 10:47:49;;;;;;;17.95;12.07;;;;;;;21.64;100.00;99501.92;1778279;81;21486;-73
2022/08/13 10:50:18;;;;;;;15.15;11.50;;;;;;;21.78;100.00;99505.69;1766789;81;21485;-75
2022/08/13 10:52:44;;;;;;;16.37;11.57;;;;;;;21.94;100.00;99504.38;1749016;81;20996;-73
2022/08/13 10:55:13;;;;;;;14.30;11.83;;;;;;;22.08;100.00;99508.36;1767172;81;21957;-74
2022/08/13 10:57:43;;;;;;;18.27;11.65;;;;;;;22.26;100.00;99509.66;1764377;81;20988;-73
2022/08/13 11:00:12;;;;;;;16.87;12.00;;;;;;;22.47;100.00;99514.97;1736977;82;21522;-74
2022/08/13 11:02:39;;;;;;;15.68;12.15;;;;;;;22.65;100.00;99515.44;1778099;81;21007;-73
2022/08/13 11:05:07;;;;;;;22.17;12.00;;;;;;;22.81;100.00;99509.36;1778553;81;21519;-74
2022/08/13 11:07:36;;;;;;;15.93;11.28;;;;;;;22.95;100.00;99506.13;1766124;81;20961;-74
2022/08/13 11:10:06;;;;;;;14.93;11.00;;;;;;;23.09;100.00;99504.50;1766007;81;21593;-72
2022/08/13 11:12:34;;;;;;;17.80;11.50;;;;;;;23.22;100.00;99499.05;1769785;81;21514;-73
2022/08/13 11:15:01;;;;;;;14.98;11.15;;;;;;;23.33;100.00;99492.93;1778071;81;21133;-72
2022/08/13 11:17:27;;;;;;;14.23;11.22;;;;;;;23.48;100.00;99491.54;1776992;80;21059;-72
2022/08/13 11:19:55;;;;;;;14.95;10.68;;;;;;;23.62;100.00;99491.04;1739837;82;21869;-72
2022/08/13 11:22:28;;;;;;;15.65;11.50;;;;;;;23.77;100.00;99489.56;1755912;81;21409;-73
2022/08/13 11:24:51;;;;;;;13.93;11.93;;;;;;;23.96;100.00;99486.57;1750169;81;21063;-72
2022/08/13 11:27:17;;;;;;;15.70;11.55;;;;;;;24.13;100.00;99488.34;1774408;80;21708;-73
2022/08/13 11:29:44;;;;;;;16.55;11.85;;;;;;;24.23;100.00;99480.78;1767693;80;21066;-71
2022/08/13 11:32:10;;;;;;;17.80;11.80;;;;;;;24.30;100.00;99477.94;1769231;80;21862;-71
2022/08/13 11:34:37;;;;;;;16.35;11.15;;;;;;;24.38;100.00;99472.70;1778153;81;21561;-73
2022/08/13 11:37:04;;;;;;;17.17;11.10;;;;;;;24.53;100.00;99471.80;1765756;79;21000;-74
2022/08/13 11:39:30;;;;;;;13.30;10.98;;;;;;;24.69;100.00;99470.48;1777490;81;21055;-72
2022/08/13 11:41:57;;;;;;;15.23;11.38;;;;;;;24.89;100.00;99464.88;1777621;81;21031;-72